Time;durP1;ratioP1;P1;durP2;ratioP2;P2;SDS_P1;SDS_P2;PMS_P1;PMS_P2;Temp;Humidity;BMP_temperature;BMP_pressure;BME280_temperature;BME280_humidity;BME280_pressure;Samples;Min_cycle;Max_cycle;Signal;HPM_P1;HPM_P2
2023/02/02 00:00:08;;;;;;;5.68;2.50;;;;;;;5.54;41.29;95027.28;5066427;28;20033;-77
2023/02/02 00:02:35;;;;;;;5.95;2.30;;;;;;;5.49;41.34;95026.94;5066198;28;20183;-78
2023/02/02 00:05:00;;;;;;;6.90;3.10;;;;;;;5.53;41.00;95023.03;5065315;28;20434;-79
2023/02/02 00:07:25;;;;;;;7.22;2.42;;;;;;;5.53;40.99;95017.56;5065784;28;20028;-78
2023/02/02 00:09:51;;;;;;;5.95;2.70;;;;;;;5.54;40.77;95016.38;5048010;28;20063;-79
2023/02/02 00:12:16;;;;;;;6.32;2.17;;;;;;;5.47;41.09;95021.91;5066557;28;20036;-78
2023/02/02 00:14:42;;;;;;;7.40;2.50;;;;;;;5.48;40.83;95019.94;5064226;28;20139;-78
2023/02/02 00:17:08;;;;;;;6.82;2.75;;;;;;;5.49;40.87;95024.22;5066292;28;20033;-80
2023/02/02 00:19:34;;;;;;;5.43;2.42;;;;;;;5.58;40.92;95027.28;5065064;28;20111;-80
2023/02/02 00:21:59;;;;;;;5.80;2.35;;;;;;;5.52;40.95;95026.16;5063578;28;20183;-80
2023/02/02 00:24:25;;;;;;;8.52;3.42;;;;;;;5.58;40.91;95035.44;5065931;28;20025;-78
2023/02/02 00:26:52;;;;;;;7.05;3.20;;;;;;;5.55;41.09;95031.56;5047055;28;20029;-77
2023/02/02 00:29:23;;;;;;;8.23;3.70;;;;;;;5.52;41.19;95031.59;5064980;28;20021;-78
2023/02/02 00:31:49;;;;;;;8.80;4.07;;;;;;;5.54;41.45;95027.28;5046771;28;20048;-78
2023/02/02 00:34:15;;;;;;;8.48;4.47;;;;;;;5.59;41.36;95032.31;5064162;28;20029;-77
2023/02/02 00:36:41;;;;;;;22.73;8.70;;;;;;;5.52;41.41;95037.84;5064438;28;20024;-78
2023/02/02 00:39:07;;;;;;;13.02;6.10;;;;;;;5.50;41.63;95031.97;5065106;28;20108;-78
2023/02/02 00:41:32;;;;;;;11.57;5.22;;;;;;;5.43;41.83;95026.59;5065242;28;20239;-79
2023/02/02 00:46:42;;;;;;;;;;;;;;;5.33;42.34;95039.16;5065373;28;20040;-77
2023/02/02 00:49:08;;;;;;;8.02;3.08;;;;;;;5.23;42.71;95034.53;5064501;28;19913;-77
2023/02/02 00:51:35;;;;;;;6.93;3.05;;;;;;;5.17;43.23;95036.13;5071144;28;20028;-80
2023/02/02 00:54:00;;;;;;;8.15;2.70;;;;;;;5.15;43.75;95037.69;5048143;28;20196;-78
2023/02/02 00:56:26;;;;;;;5.40;2.63;;;;;;;5.11;44.20;95028.78;5063933;28;20033;-77
2023/02/02 00:58:51;;;;;;;4.55;2.47;;;;;;;5.10;44.23;95019.03;5066521;28;20426;-79
2023/02/02 01:01:17;;;;;;;4.82;2.05;;;;;;;5.06;44.33;95022.56;5064301;28;20037;-80
2023/02/02 01:03:43;;;;;;;4.15;2.30;;;;;;;5.05;44.52;95014.81;5064690;28;20044;-77
2023/02/02 01:06:09;;;;;;;4.05;2.33;;;;;;;4.99;44.79;95006.28;5046162;28;20276;-79
2023/02/02 01:08:34;;;;;;;3.97;2.05;;;;;;;4.94;44.90;95014.88;5047921;28;20024;-78
2023/02/02 01:11:00;;;;;;;6.28;2.58;;;;;;;4.97;45.20;95002.38;5064152;28;20501;-80
2023/02/02 01:13:25;;;;;;;4.68;2.28;;;;;;;4.95;45.45;95000.06;5063836;28;20200;-78
2023/02/02 01:15:58;;;;;;;5.30;2.75;;;;;;;4.93;45.21;94999.69;5065593;28;20025;-78
2023/02/02 01:18:23;;;;;;;2.50;1.83;;;;;;;4.92;45.54;95002.81;5062523;28;20029;-79
2023/02/02 01:21:01;;;;;;;5.95;2.20;;;;;;;5.02;45.20;94997.28;5063818;28;20125;-77
2023/02/02 01:23:27;;;;;;;5.40;2.03;;;;;;;4.98;44.84;95001.22;5029939;28;20115;-78
2023/02/02 01:25:54;;;;;;;2.88;1.80;;;;;;;4.99;44.89;94997.34;5063851;28;20467;-78
2023/02/02 01:28:19;;;;;;;4.25;2.25;;;;;;;5.06;44.60;94995.31;5064155;28;20434;-79
2023/02/02 01:30:45;;;;;;;5.28;1.85;;;;;;;5.10;44.39;94991.78;5063618;28;20043;-78
2023/02/02 01:33:10;;;;;;;3.30;2.33;;;;;;;5.13;44.23;95010.06;5065042;28;20028;-79
2023/02/02 01:35:36;;;;;;;11.00;3.60;;;;;;;5.21;44.41;95006.13;5062772;28;20040;-79
2023/02/02 01:38:01;;;;;;;9.90;3.63;;;;;;;5.24;44.42;95002.59;5063703;28;20027;-77
2023/02/02 01:40:27;;;;;;;6.60;3.45;;;;;;;5.19;45.04;95000.31;5063540;28;20036;-78
2023/02/02 01:42:52;;;;;;;10.43;3.20;;;;;;;5.18;45.50;95002.25;5064966;28;20028;-77
2023/02/02 01:45:25;;;;;;;6.82;3.83;;;;;;;5.19;45.51;95003.03;5063538;28;20025;-77
2023/02/02 01:47:57;;;;;;;8.20;3.65;;;;;;;5.07;45.76;94996.88;5068946;28;20029;-79
2023/02/02 01:50:27;;;;;;;7.38;3.53;;;;;;;5.04;45.92;94986.00;5065844;28;20056;-77
2023/02/02 01:52:54;;;;;;;8.32;3.38;;;;;;;4.97;46.99;94994.97;5046315;28;20024;-77
2023/02/02 01:55:22;;;;;;;9.68;4.03;;;;;;;4.77;47.24;94985.78;5063903;28;20060;-77
2023/02/02 01:58:10;;;;;;;7.32;3.25;;;;;;;4.63;48.59;94983.13;5045800;28;20036;-77
2023/02/02 02:00:39;;;;;;;6.57;3.10;;;;;;;4.54;49.06;94980.84;5063691;28;20033;-78
2023/02/02 02:03:10;;;;;;;5.97;2.78;;;;;;;4.48;49.24;94975.03;5062859;28;20047;-78
2023/02/02 02:05:41;;;;;;;4.80;3.03;;;;;;;4.46;49.23;94974.66;5062985;28;20029;-78
2023/02/02 02:08:12;;;;;;;6.85;3.33;;;;;;;4.36;49.20;94983.66;5063620;28;20089;-79
2023/02/02 02:10:38;;;;;;;5.78;3.08;;;;;;;4.23;49.48;94971.63;5062369;28;20647;-77
2023/02/02 02:13:04;;;;;;;8.45;2.83;;;;;;;4.20;50.03;94980.59;5063384;28;20125;-77
2023/02/02 02:18:38;;;;;;;5.95;2.97;;;;;;;4.05;50.22;94974.41;5063151;28;20123;-77
2023/02/02 02:27:54;;;;;;;4.72;2.90;;;;;;;3.84;51.20;94969.84;5060950;28;20498;-77
2023/02/02 02:30:54;;;;;;;8.25;3.22;;;;;;;3.76;51.44;94986.53;5045423;28;20086;-79
2023/02/02 02:33:48;;;;;;;5.18;3.35;;;;;;;3.62;51.75;94988.13;5059589;28;20040;-77
2023/02/02 02:36:23;;;;;;;5.57;2.72;;;;;;;3.59;51.66;94985.41;5044772;28;20036;-78
2023/02/02 02:39:03;;;;;;;5.85;3.03;;;;;;;3.50;51.78;94977.66;5063864;28;20265;-78
2023/02/02 02:41:33;;;;;;;5.07;2.55;;;;;;;3.41;51.91;94982.72;5062052;28;20550;-79
2023/02/02 02:44:03;;;;;;;5.35;2.92;;;;;;;3.38;51.98;94986.19;5068919;28;20021;-78
2023/02/02 02:46:28;;;;;;;5.40;3.00;;;;;;;3.34;52.21;94986.22;5064252;28;20027;-78
2023/02/02 02:48:58;;;;;;;6.93;3.10;;;;;;;3.24;52.47;94986.22;5062862;28;20016;-77
2023/02/02 02:51:48;;;;;;;4.75;2.33;;;;;;;3.18;52.73;94980.38;5063613;28;20044;-77
2023/02/02 02:54:32;;;;;;;5.70;2.70;;;;;;;3.16;52.90;94980.78;5063297;28;20558;-77
2023/02/02 02:57:29;;;;;;;4.95;2.30;;;;;;;3.17;52.62;94984.28;5063172;28;20074;-77
2023/02/02 02:59:57;;;;;;;6.78;2.95;;;;;;;3.22;52.90;94974.97;5066897;28;20036;-78
2023/02/02 03:02:27;;;;;;;5.85;3.00;;;;;;;3.26;52.94;94970.28;5065215;28;20028;-77
2023/02/02 03:05:23;;;;;;;4.85;2.90;;;;;;;3.23;52.91;94971.84;5068366;28;20107;-78
2023/02/02 03:08:09;;;;;;;4.82;3.00;;;;;;;3.30;52.92;94971.84;5067361;28;20463;-77
2023/02/02 03:10:37;;;;;;;4.32;3.00;;;;;;;3.29;52.90;94975.72;5065608;28;20036;-78
2023/02/02 03:13:07;;;;;;;5.53;3.42;;;;;;;3.33;53.05;94973.78;5066811;28;20024;-77
2023/02/02 03:15:32;;;;;;;5.80;3.30;;;;;;;3.33;52.93;94975.75;5065153;28;20032;-77
2023/02/02 03:17:58;;;;;;;5.90;3.30;;;;;;;3.28;52.86;94971.47;5067350;28;20029;-77
2023/02/02 03:20:23;;;;;;;7.20;3.25;;;;;;;3.28;53.24;94968.75;5065953;28;20518;-77
2023/02/02 03:22:49;;;;;;;6.93;2.88;;;;;;;3.27;53.27;94972.63;5066111;28;20095;-77
2023/02/02 03:25:15;;;;;;;6.05;3.40;;;;;;;3.26;53.01;94964.84;5066951;28;20028;-77
2023/02/02 03:27:40;;;;;;;5.78;3.28;;;;;;;3.25;52.87;94969.50;5067065;28;20051;-78
2023/02/02 03:30:08;;;;;;;4.65;3.30;;;;;;;3.31;52.86;94964.47;5066236;28;20020;-76
2023/02/02 03:32:34;;;;;;;4.72;2.80;;;;;;;3.31;52.93;94969.91;5048331;28;20028;-77
2023/02/02 03:34:59;;;;;;;5.72;3.10;;;;;;;3.35;52.78;94973.41;5066238;28;20367;-78
2023/02/02 03:37:25;;;;;;;6.45;3.45;;;;;;;3.31;52.82;94972.63;5064566;28;20024;-77
2023/02/02 03:39:51;;;;;;;5.22;3.55;;;;;;;3.26;52.78;94970.28;5071522;28;20032;-78
2023/02/02 03:42:16;;;;;;;4.32;3.08;;;;;;;3.30;52.68;94971.84;5065299;28;20111;-78
2023/02/02 03:44:41;;;;;;;5.97;3.63;;;;;;;3.33;52.81;94965.63;5067130;28;20040;-78
2023/02/02 03:47:07;;;;;;;6.65;3.63;;;;;;;3.30;52.85;94969.13;5067042;28;20025;-79
2023/02/02 03:49:32;;;;;;;6.15;4.00;;;;;;;3.30;52.68;94971.06;5066194;28;20024;-78
2023/02/02 03:51:58;;;;;;;7.43;4.25;;;;;;;3.25;53.16;94977.66;5067507;28;20024;-77
2023/02/02 03:54:23;;;;;;;7.10;4.25;;;;;;;3.10;53.36;94978.84;5047497;28;20039;-78
2023/02/02 03:56:48;;;;;;;7.25;4.85;;;;;;;2.97;53.67;94980.38;5066958;28;20170;-78
2023/02/02 03:59:14;;;;;;;10.05;4.95;;;;;;;2.90;53.93;94981.91;5065429;28;20036;-78
2023/02/02 04:01:39;;;;;;;9.50;4.68;;;;;;;2.89;53.69;94976.88;5065449;28;20467;-79
2023/02/02 04:04:05;;;;;;;6.22;4.05;;;;;;;2.91;53.64;94990.81;5064994;28;20029;-78
2023/02/02 04:06:30;;;;;;;8.70;4.80;;;;;;;2.91;53.75;94988.88;5066235;28;20038;-79
2023/02/02 04:08:55;;;;;;;6.70;4.07;;;;;;;2.84;53.80;94983.44;5065386;28;20162;-79
2023/02/02 04:11:21;;;;;;;6.97;4.13;;;;;;;2.80;53.95;94982.66;5065521;28;20399;-76
2023/02/02 04:13:46;;;;;;;6.25;3.67;;;;;;;2.73;53.79;94985.38;5066984;28;20029;-78
2023/02/02 04:16:12;;;;;;;7.32;4.32;;;;;;;2.75;54.11;94995.84;5065850;28;20471;-77
2023/02/02 04:18:37;;;;;;;8.10;4.82;;;;;;;2.69;54.25;94991.94;5065691;28;20483;-77
2023/02/02 04:21:04;;;;;;;7.38;4.32;;;;;;;2.57;54.51;94993.09;5064126;28;20060;-79
2023/02/02 04:23:30;;;;;;;6.55;3.55;;;;;;;2.47;54.83;94996.56;5065106;28;20036;-78
2023/02/02 04:25:56;;;;;;;6.78;4.05;;;;;;;2.51;55.07;94991.91;5048197;28;20040;-77
2023/02/02 04:28:22;;;;;;;5.55;3.58;;;;;;;2.50;55.07;94988.41;5063963;28;20409;-76
2023/02/02 04:30:49;;;;;;;7.55;4.20;;;;;;;2.46;55.09;94982.19;5065147;28;20105;-79
2023/02/02 04:33:14;;;;;;;8.82;4.50;;;;;;;2.43;55.21;94977.56;5063387;28;20852;-77
2023/02/02 04:35:41;;;;;;;5.18;3.88;;;;;;;2.42;55.24;94972.50;5052850;28;20037;-78
2023/02/02 04:38:07;;;;;;;6.57;3.58;;;;;;;2.37;55.00;94970.94;5064447;28;20116;-78
2023/02/02 04:40:32;;;;;;;9.23;4.70;;;;;;;2.36;55.26;94985.69;5065311;28;20033;-79
2023/02/02 04:42:58;;;;;;;10.13;4.50;;;;;;;2.37;55.27;94982.56;5065328;28;20028;-77
2023/02/02 04:45:23;;;;;;;7.53;4.25;;;;;;;2.46;54.99;94992.28;5064265;28;20028;-78
2023/02/02 04:47:49;;;;;;;8.45;5.00;;;;;;;2.46;54.76;94995.00;5066385;28;20082;-77
2023/02/02 04:50:15;;;;;;;9.02;4.82;;;;;;;2.53;54.86;94997.75;5064890;28;20090;-76
2023/02/02 04:52:40;;;;;;;9.10;5.60;;;;;;;2.51;54.70;94997.34;5065879;28;20036;-76
2023/02/02 04:55:06;;;;;;;7.30;4.85;;;;;;;2.56;54.41;94991.53;5063681;28;20024;-77
2023/02/02 04:57:32;;;;;;;6.30;4.47;;;;;;;2.58;54.29;94991.91;5045371;28;20036;-78
2023/02/02 04:59:57;;;;;;;9.43;5.07;;;;;;;2.56;54.14;95005.09;5064335;28;20032;-80
2023/02/02 05:02:22;;;;;;;12.55;6.75;;;;;;;2.54;54.28;95002.00;5064375;28;20032;-80
2023/02/02 05:04:48;;;;;;;15.10;6.60;;;;;;;2.40;54.48;95003.50;5063657;28;20453;-80
2023/02/02 05:07:13;;;;;;;12.35;7.25;;;;;;;2.40;54.54;95006.22;5064023;28;20464;-81
2023/02/02 05:09:39;;;;;;;16.13;8.65;;;;;;;2.38;54.56;95013.19;5065949;28;20032;-80
2023/02/02 05:12:04;;;;;;;13.90;8.30;;;;;;;2.27;54.64;94998.81;5061925;28;20904;-78
2023/02/02 05:14:29;;;;;;;13.65;7.97;;;;;;;2.25;54.80;95010.03;5064745;28;20075;-80
2023/02/02 05:16:55;;;;;;;13.43;7.63;;;;;;;2.23;54.68;94998.00;5062422;28;20036;-80
2023/02/02 05:19:20;;;;;;;12.55;7.95;;;;;;;2.20;54.73;94993.34;5062823;28;20391;-80
2023/02/02 05:21:47;;;;;;;15.27;8.48;;;;;;;2.14;54.75;94992.94;5061573;28;20045;-79
2023/02/02 05:24:13;;;;;;;22.98;11.93;;;;;;;2.14;54.76;94990.22;5065178;28;20104;-78
2023/02/02 05:26:38;;;;;;;20.25;11.10;;;;;;;2.15;54.76;94991.00;5067396;28;20082;-78
2023/02/02 05:29:05;;;;;;;15.05;8.05;;;;;;;2.07;55.09;95001.06;5066754;28;20020;-76
2023/02/02 05:31:31;;;;;;;13.65;6.78;;;;;;;2.04;55.17;94994.44;5068419;28;20037;-78
2023/02/02 05:33:56;;;;;;;14.18;6.78;;;;;;;1.99;55.03;94999.44;5062213;28;20028;-77
2023/02/02 05:36:22;;;;;;;10.77;7.28;;;;;;;2.00;55.21;95001.00;5063640;28;20115;-77
2023/02/02 05:38:47;;;;;;;11.35;7.00;;;;;;;1.98;55.70;95006.03;5056787;28;20632;-79
2023/02/02 05:41:16;;;;;;;10.90;6.05;;;;;;;1.96;55.54;95005.66;5063064;28;20035;-78
2023/02/02 05:43:41;;;;;;;8.57;5.57;;;;;;;1.99;54.98;95008.38;5059882;28;20036;-81
2023/02/02 05:46:06;;;;;;;10.95;5.75;;;;;;;2.03;54.63;95011.09;5063378;28;20054;-77
2023/02/02 05:48:32;;;;;;;9.60;5.90;;;;;;;2.07;54.84;95007.25;5062617;28;20424;-77
2023/02/02 05:51:24;;;;;;;12.68;6.47;;;;;;;2.06;54.69;95011.09;5060073;28;20036;-77
2023/02/02 05:53:50;;;;;;;11.02;5.55;;;;;;;2.07;54.68;95012.69;5063067;28;20047;-77
2023/02/02 05:56:15;;;;;;;8.23;5.53;;;;;;;2.06;54.68;95016.53;5061692;28;20032;-76
2023/02/02 05:58:41;;;;;;;9.90;6.15;;;;;;;2.02;54.84;95015.75;5064112;28;20514;-76
2023/02/02 06:01:08;;;;;;;14.00;7.88;;;;;;;2.03;54.89;95005.69;5062965;28;20035;-76
2023/02/02 06:03:34;;;;;;;13.40;7.72;;;;;;;1.97;54.89;95013.41;5062793;28;20101;-77
2023/02/02 06:05:59;;;;;;;15.18;7.88;;;;;;;1.84;55.55;95025.72;5062705;28;20538;-76
2023/02/02 06:08:25;;;;;;;11.35;6.38;;;;;;;1.66;55.89;95024.81;5058476;28;20036;-77
2023/02/02 06:10:50;;;;;;;14.68;6.25;;;;;;;1.48;56.50;95028.19;5059680;28;20175;-77
2023/02/02 06:13:16;;;;;;;12.15;6.63;;;;;;;1.48;56.64;95027.41;5061256;28;20043;-79
2023/02/02 06:15:42;;;;;;;10.88;5.72;;;;;;;1.38;56.82;95020.78;5061479;28;20048;-79
2023/02/02 06:18:07;;;;;;;12.25;5.78;;;;;;;1.31;57.04;95024.19;5062230;28;20384;-77
2023/02/02 06:20:33;;;;;;;11.52;5.85;;;;;;;1.37;56.75;95031.97;5062838;28;20043;-78
2023/02/02 06:22:58;;;;;;;8.57;4.97;;;;;;;1.48;56.58;95040.94;5061985;28;20034;-77
2023/02/02 06:25:24;;;;;;;9.25;5.80;;;;;;;1.45;56.61;95042.50;5064468;28;20382;-77
2023/02/02 06:27:54;;;;;;;10.32;6.22;;;;;;;1.46;56.50;95040.56;5050743;28;20025;-79
2023/02/02 06:30:19;;;;;;;15.30;5.50;;;;;;;1.51;56.44;95054.53;5059563;28;20048;-78
2023/02/02 06:32:45;;;;;;;9.60;5.63;;;;;;;1.59;56.31;95042.56;5063443;28;20028;-77
2023/02/02 06:35:10;;;;;;;8.38;5.15;;;;;;;1.70;55.80;95042.66;5067377;28;20043;-77
2023/02/02 06:37:37;;;;;;;8.27;5.38;;;;;;;1.86;55.24;95053.22;5057145;28;20304;-78
2023/02/02 06:40:04;;;;;;;12.88;6.90;;;;;;;2.00;54.88;95055.22;5066571;28;20043;-79
2023/02/02 06:42:29;;;;;;;18.45;9.93;;;;;;;2.11;54.32;95054.13;5066172;28;20578;-77
2023/02/02 06:44:55;;;;;;;22.35;11.30;;;;;;;2.16;54.21;95044.09;5069065;28;20107;-77
2023/02/02 06:47:21;;;;;;;18.70;9.82;;;;;;;2.21;54.06;95047.22;5067434;28;20029;-77
2023/02/02 06:49:46;;;;;;;15.35;9.73;;;;;;;2.33;53.43;95051.53;5047178;28;20021;-78
2023/02/02 06:52:11;;;;;;;15.38;9.38;;;;;;;2.47;53.06;95050.84;5064795;28;20568;-78
2023/02/02 06:54:37;;;;;;;18.88;10.60;;;;;;;2.55;52.57;95052.41;5064375;28;20032;-86
2023/02/02 06:57:02;;;;;;;12.68;7.70;;;;;;;2.61;52.36;95048.16;5066025;28;20028;-79
2023/02/02 06:59:28;;;;;;;16.17;9.43;;;;;;;2.75;52.11;95053.63;5066869;28;20105;-82
2023/02/02 07:01:53;;;;;;;10.45;6.25;;;;;;;2.84;51.29;95062.19;5063956;28;20573;-82
2023/02/02 07:04:19;;;;;;;8.10;5.70;;;;;;;2.93;51.02;95059.91;5067162;28;20021;-81
2023/02/02 07:06:44;;;;;;;8.98;4.82;;;;;;;3.06;49.89;95056.81;5067716;28;20025;-83
2023/02/02 07:09:10;;;;;;;6.82;3.67;;;;;;;3.22;48.73;95043.66;5045469;28;20029;-83
2023/02/02 07:11:35;;;;;;;8.45;4.05;;;;;;;3.32;48.60;95047.53;5066202;28;20100;-83
2023/02/02 07:14:04;;;;;;;5.78;3.17;;;;;;;3.49;48.16;95056.84;5068112;28;20100;-82
2023/02/02 07:16:29;;;;;;;6.80;3.78;;;;;;;3.69;47.37;95049.88;5066656;28;20467;-83
2023/02/02 07:18:55;;;;;;;6.93;4.10;;;;;;;3.82;47.46;95045.59;5066190;28;20044;-83
2023/02/02 07:21:23;;;;;;;9.38;3.90;;;;;;;3.96;47.20;95050.25;5070119;28;20048;-84
2023/02/02 07:23:48;;;;;;;8.68;3.50;;;;;;;4.05;46.63;95049.81;5098994;28;20127;-83
2023/02/02 07:26:15;;;;;;;6.50;3.13;;;;;;;4.27;46.02;95070.38;5066817;28;20131;-84
2023/02/02 07:28:41;;;;;;;8.15;4.80;;;;;;;4.33;46.04;95063.38;5088771;28;20165;-82
2023/02/02 07:31:19;;;;;;;12.50;4.45;;;;;;;4.43;45.79;95068.00;5084832;28;20552;-83
2023/02/02 07:33:46;;;;;;;5.95;3.20;;;;;;;4.64;44.46;95063.63;5072070;28;20063;-84
2023/02/02 07:36:14;;;;;;;5.45;2.80;;;;;;;4.87;44.19;95063.16;5065835;28;20516;-83
2023/02/02 07:38:40;;;;;;;7.47;3.03;;;;;;;5.12;43.68;95071.22;5065069;28;20024;-83
2023/02/02 07:41:06;;;;;;;7.53;3.17;;;;;;;5.23;43.41;95052.84;5078489;28;20039;-83
2023/02/02 07:43:31;;;;;;;11.10;6.43;;;;;;;5.38;45.15;95056.22;5055526;28;20050;-81
2023/02/02 07:46:05;;;;;;;11.63;7.20;;;;;;;5.49;45.90;95057.72;5063807;28;20082;-80
2023/02/02 07:48:30;;;;;;;;;;;;;;;5.50;46.48;95050.31;5068516;28;20112;-84
2023/02/02 07:51:04;;;;;;;11.82;8.02;;;;;;;5.55;46.51;95050.66;5067232;28;19959;-83
2023/02/02 07:53:30;;;;;;;14.45;9.52;;;;;;;5.53;46.89;95038.59;5064706;28;20415;-84
2023/02/02 07:56:11;;;;;;;20.00;10.27;;;;;;;5.56;46.98;95048.69;5064505;28;20028;-85
2023/02/02 07:58:36;;;;;;;18.90;10.23;;;;;;;5.80;46.68;95050.47;5069576;28;20059;-83
2023/02/02 08:01:03;;;;;;;21.17;10.35;;;;;;;5.74;46.75;95035.72;5070290;28;20060;-84
2023/02/02 08:03:28;;;;;;;16.73;10.10;;;;;;;5.72;46.83;95040.78;5068509;28;20044;-83
2023/02/02 08:05:54;;;;;;;15.02;10.48;;;;;;;6.14;45.86;95038.88;5070914;28;20403;-83
2023/02/02 08:08:19;;;;;;;20.40;9.35;;;;;;;6.50;45.17;95035.75;5066845;28;20031;-83
2023/02/02 08:10:48;;;;;;;17.20;9.32;;;;;;;6.92;44.78;95040.69;5067579;28;20090;-85
2023/02/02 08:13:14;;;;;;;16.02;9.18;;;;;;;7.29;43.64;95038.25;5066219;28;20095;-84
2023/02/02 08:15:39;;;;;;;16.50;9.50;;;;;;;7.72;42.47;95032.88;5067345;28;20021;-85
2023/02/02 08:18:05;;;;;;;19.17;9.60;;;;;;;8.04;41.75;95026.88;5073298;28;20043;-83
2023/02/02 08:20:30;;;;;;;14.15;8.10;;;;;;;8.43;41.01;95034.41;5079051;28;20044;-82
2023/02/02 08:22:55;;;;;;;14.38;8.15;;;;;;;8.77;40.16;95025.13;5060773;28;20390;-82
2023/02/02 08:25:21;;;;;;;12.80;7.50;;;;;;;8.91;39.94;95022.09;5048324;28;20108;-84
2023/02/02 08:27:47;;;;;;;12.20;7.05;;;;;;;9.24;39.27;95017.47;5059330;28;20033;-84
2023/02/02 08:30:12;;;;;;;12.82;6.97;;;;;;;9.86;38.00;95023.06;5067017;28;20025;-85
2023/02/02 08:32:38;;;;;;;9.30;5.32;;;;;;;10.51;35.32;95023.00;5066482;28;20025;-84
2023/02/02 08:35:04;;;;;;;11.02;4.55;;;;;;;10.75;33.99;95020.78;5066787;28;20039;-84
2023/02/02 08:37:29;;;;;;;5.30;4.25;;;;;;;11.34;32.15;95024.16;5064983;28;20028;-85
2023/02/02 08:39:55;;;;;;;4.75;2.40;;;;;;;11.78;30.68;95011.38;5066031;28;20025;-84
2023/02/02 08:42:20;;;;;;;9.05;2.95;;;;;;;12.16;30.09;95018.84;5066981;28;20073;-83
2023/02/02 08:44:46;;;;;;;6.57;2.40;;;;;;;12.42;29.50;95009.25;5065718;28;20043;-85
2023/02/02 08:47:11;;;;;;;6.57;2.65;;;;;;;12.76;29.79;95002.94;5066433;28;20514;-84
2023/02/02 08:49:36;;;;;;;5.07;2.30;;;;;;;12.58;29.21;94996.53;5065721;28;20025;-84
2023/02/02 08:52:02;;;;;;;3.80;2.33;;;;;;;12.80;29.14;94991.00;5069973;28;20016;-84
2023/02/02 08:54:28;;;;;;;6.50;2.33;;;;;;;13.87;28.62;94990.44;5069891;28;20028;-84
2023/02/02 08:56:53;;;;;;;3.20;2.33;;;;;;;14.82;26.37;94992.38;5065710;28;20402;-85
2023/02/02 08:59:18;;;;;;;6.90;2.50;;;;;;;15.72;25.35;94991.84;5064837;28;20043;-84
2023/02/02 09:01:44;;;;;;;5.75;2.55;;;;;;;16.68;23.94;94984.25;5064312;28;20028;-84
2023/02/02 09:04:17;;;;;;;6.68;2.50;;;;;;;17.88;22.12;94986.56;5065412;28;20024;-85
2023/02/02 09:06:42;;;;;;;4.38;2.30;;;;;;;19.63;20.17;94996.47;5065222;28;20020;-85
2023/02/02 09:09:11;;;;;;;4.78;2.72;;;;;;;20.76;18.96;94984.69;5066728;28;20112;-87
2023/02/02 09:11:37;;;;;;;6.55;2.60;;;;;;;21.79;18.23;94990.69;5064297;28;20032;-84
2023/02/02 09:14:05;;;;;;;5.00;2.53;;;;;;;22.52;17.80;94988.53;5071028;28;20028;-84
2023/02/02 09:16:30;;;;;;;5.72;2.60;;;;;;;23.41;16.71;94997.06;5080334;28;20021;-84
2023/02/02 09:18:56;;;;;;;6.60;2.40;;;;;;;23.62;16.51;94983.38;5064772;28;20031;-85
2023/02/02 09:21:21;;;;;;;5.25;2.13;;;;;;;24.04;16.08;94993.28;5065996;28;20110;-85
2023/02/02 09:23:48;;;;;;;8.45;2.97;;;;;;;25.34;15.50;94990.50;5064193;28;20029;-85
2023/02/02 09:26:16;;;;;;;5.05;2.58;;;;;;;25.97;14.52;95014.38;5066982;28;20048;-86
2023/02/02 09:28:44;;;;;;;7.43;2.60;;;;;;;25.78;14.39;94991.16;5063952;28;20448;-86
2023/02/02 09:31:10;;;;;;;7.15;2.60;;;;;;;26.12;14.49;94983.66;5064663;28;20027;-86
2023/02/02 09:33:35;;;;;;;6.07;2.60;;;;;;;26.70;14.31;94985.66;5066318;28;20033;-87
2023/02/02 09:36:05;;;;;;;5.07;2.38;;;;;;;27.73;13.25;94977.31;5065822;28;20537;-85
2023/02/02 09:38:31;;;;;;;7.63;2.63;;;;;;;27.64;12.76;94972.88;5064800;28;20032;-86
2023/02/02 09:40:56;;;;;;;4.85;2.50;;;;;;;27.97;12.51;94981.84;5063904;28;20032;-86
2023/02/02 09:44:08;;;;;;;7.38;2.85;;;;;;;28.27;12.36;94978.50;5065256;28;20035;-87
2023/02/02 09:46:56;;;;;;;3.90;2.33;;;;;;;28.45;12.16;94979.63;5022711;28;20398;-87
2023/02/02 09:49:45;;;;;;;5.15;2.60;;;;;;;28.83;12.10;94974.94;5005525;28;20140;-84
2023/02/02 09:52:21;;;;;;;3.55;2.22;;;;;;;29.54;11.54;94969.06;5023388;28;21009;-86
2023/02/02 09:54:48;;;;;;;4.78;2.28;;;;;;;30.29;11.00;94967.63;5007044;28;20147;-86
2023/02/02 09:57:20;;;;;;;5.55;2.67;;;;;;;31.11;10.66;94963.69;5014572;28;20108;-86
2023/02/02 09:59:50;;;;;;;5.75;2.40;;;;;;;31.25;10.36;94956.47;5008336;28;20041;-85
2023/02/02 10:02:29;;;;;;;6.78;2.50;;;;;;;31.20;10.08;94958.19;5006973;28;20061;-86
2023/02/02 10:05:01;;;;;;;5.15;2.85;;;;;;;29.35;11.58;94961.59;5008466;28;20033;-85
2023/02/02 10:07:32;;;;;;;3.97;2.22;;;;;;;28.93;11.84;94951.84;5028025;28;20696;-86
2023/02/02 10:10:16;;;;;;;5.45;2.38;;;;;;;28.20;12.32;94943.25;5031701;28;20033;-85
2023/02/02 10:12:55;;;;;;;7.97;2.92;;;;;;;29.31;11.35;94930.09;5040299;28;20084;-87
2023/02/02 10:15:37;;;;;;;7.15;2.50;;;;;;;28.47;12.20;94935.34;5012676;28;20064;-87
2023/02/02 10:18:46;;;;;;;4.25;2.75;;;;;;;27.58;12.62;94921.41;5029667;28;20048;-86
2023/02/02 10:21:11;;;;;;;5.38;2.15;;;;;;;28.52;12.19;94933.69;4987996;28;20482;-86
2023/02/02 10:23:39;;;;;;;3.65;2.40;;;;;;;29.11;11.62;94922.47;5011845;28;20041;-88
2023/02/02 10:26:14;;;;;;;6.63;2.65;;;;;;;29.21;11.48;94917.78;5059709;28;20465;-86
2023/02/02 10:28:42;;;;;;;4.63;2.10;;;;;;;29.36;11.74;94914.22;5069512;28;20028;-87
2023/02/02 10:31:18;;;;;;;3.83;2.10;;;;;;;28.86;11.63;94919.34;5070459;28;20031;-87
2023/02/02 10:33:48;;;;;;;5.05;2.47;;;;;;;29.73;11.41;94912.06;5069311;28;20388;-87
2023/02/02 10:36:23;;;;;;;3.97;2.40;;;;;;;28.19;12.17;94888.03;5068695;28;20059;-88
2023/02/02 10:38:53;;;;;;;4.00;2.13;;;;;;;24.79;14.20;94886.69;5070236;28;20090;-87
2023/02/02 10:41:27;;;;;;;5.55;2.72;;;;;;;23.76;15.35;94879.19;5068037;28;20050;-87
2023/02/02 10:43:56;;;;;;;10.93;2.85;;;;;;;22.33;16.64;94866.44;5070703;28;20044;-85
2023/02/02 10:46:47;;;;;;;5.15;2.55;;;;;;;20.67;18.13;94856.44;5069422;28;20075;-86
2023/02/02 10:49:20;;;;;;;7.95;2.80;;;;;;;22.14;17.29;94863.47;5068130;28;20498;-87
2023/02/02 10:51:56;;;;;;;7.75;3.20;;;;;;;23.88;15.36;94859.44;5067614;28;20031;-87
2023/02/02 10:54:50;;;;;;;6.00;2.53;;;;;;;25.04;14.42;94847.22;5068350;28;20029;-87
2023/02/02 10:57:19;;;;;;;4.72;2.13;;;;;;;24.90;14.56;94852.03;5069013;28;20036;-88
2023/02/02 11:00:23;;;;;;;6.85;2.50;;;;;;;25.53;14.09;94853.34;5067519;28;20365;-87
2023/02/02 11:02:48;;;;;;;;;;;;;;;25.62;14.13;94850.09;5063315;28;20090;-83
2023/02/02 11:08:12;;;;;;;7.90;2.47;;;;;;;26.92;13.26;94826.50;5082240;28;20035;-86
2023/02/02 11:10:38;;;;;;;7.72;2.33;;;;;;;27.98;12.39;94842.13;5071093;28;20100;-86
2023/02/02 11:13:05;;;;;;;4.53;2.40;;;;;;;27.06;12.95;94844.16;5069141;28;20475;-86
2023/02/02 11:15:30;;;;;;;6.40;2.50;;;;;;;27.43;12.47;94825.31;5067764;28;20453;-86
2023/02/02 11:18:13;;;;;;;4.53;2.10;;;;;;;27.53;12.53;94832.00;5068855;28;20480;-86
2023/02/02 11:20:38;;;;;;;4.05;2.55;;;;;;;27.17;12.77;94829.03;5067333;28;20113;-87
2023/02/02 11:23:06;;;;;;;7.20;2.67;;;;;;;28.35;11.99;94823.91;5068384;28;20452;-87
2023/02/02 11:25:38;;;;;;;6.50;2.40;;;;;;;28.13;11.95;94811.16;5067664;28;20095;-86
2023/02/02 11:28:18;;;;;;;7.93;2.80;;;;;;;27.27;12.58;94813.13;5067755;28;20067;-86
2023/02/02 11:30:51;;;;;;;7.30;3.75;;;;;;;26.20;13.53;94800.63;5068626;28;20439;-87
2023/02/02 11:33:32;;;;;;;7.32;2.65;;;;;;;27.52;12.94;94805.06;5066791;28;20082;-86
2023/02/02 11:36:24;;;;;;;4.45;2.80;;;;;;;26.54;13.28;94795.06;5068226;28;20115;-86
2023/02/02 11:39:17;;;;;;;7.32;2.55;;;;;;;27.88;12.48;94813.66;5067553;28;20036;-86
2023/02/02 11:41:43;;;;;;;5.43;2.60;;;;;;;28.77;11.87;94799.00;5066370;28;20036;-85
2023/02/02 11:44:19;;;;;;;3.45;2.10;;;;;;;26.35;13.37;94795.22;5067655;28;20105;-84
2023/02/02 11:46:46;;;;;;;6.35;2.22;;;;;;;24.85;14.55;94785.41;5065952;28;20037;-85
2023/02/02 11:49:17;;;;;;;4.43;2.60;;;;;;;24.90;14.66;94788.13;5068491;28;20066;-86
2023/02/02 11:51:58;;;;;;;5.25;2.20;;;;;;;25.51;13.88;94784.81;5066427;28;20043;-85
2023/02/02 11:54:29;;;;;;;4.55;2.35;;;;;;;26.37;13.79;94784.13;5068271;28;20024;-85
2023/02/02 11:56:56;;;;;;;7.20;2.95;;;;;;;25.03;14.65;94778.22;5066946;28;20024;-87
2023/02/02 11:59:39;;;;;;;5.10;2.83;;;;;;;26.46;13.68;94766.06;5065427;28;20033;-85